sensor_id;sensor_type;location;lat;lon;timestamp;P1;durP1;ratioP1;P2;durP2;ratioP2
10461;SDS011;5278;42.656;23.374;2022-10-17T00:00:59;14.67;;;10.40;;
10461;SDS011;5278;42.656;23.374;2022-10-17T00:03:27;15.67;;;10.10;;
10461;SDS011;5278;42.656;23.374;2022-10-17T00:05:53;16.83;;;10.20;;
10461;SDS011;5278;42.656;23.374;2022-10-17T00:08:21;14.63;;;9.60;;
10461;SDS011;5278;42.656;23.374;2022-10-17T00:10:54;12.33;;;10.00;;
10461;SDS011;5278;42.656;23.374;2022-10-17T00:13:21;106.40;;;18.17;;
10461;SDS011;5278;42.656;23.374;2022-10-17T00:15:50;227.73;;;46.93;;
10461;SDS011;5278;42.656;23.374;2022-10-17T00:18:16;161.83;;;65.97;;
10461;SDS011;5278;42.656;23.374;2022-10-17T00:20:44;458.47;;;119.93;;
10461;SDS011;5278;42.656;23.374;2022-10-17T00:23:10;7.40;;;6.03;;
10461;SDS011;5278;42.656;23.374;2022-10-17T00:25:38;45.33;;;7.77;;
10461;SDS011;5278;42.656;23.374;2022-10-17T00:28:07;8.40;;;5.67;;
10461;SDS011;5278;42.656;23.374;2022-10-17T00:30:34;5.23;;;4.37;;
10461;SDS011;5278;42.656;23.374;2022-10-17T00:33:03;6.90;;;5.00;;
10461;SDS011;5278;42.656;23.374;2022-10-17T00:35:30;6.63;;;4.50;;
10461;SDS011;5278;42.656;23.374;2022-10-17T00:37:57;5.30;;;4.27;;
10461;SDS011;5278;42.656;23.374;2022-10-17T00:40:24;5.53;;;4.30;;
10461;SDS011;5278;42.656;23.374;2022-10-17T00:42:51;5.23;;;4.00;;
10461;SDS011;5278;42.656;23.374;2022-10-17T00:45:19;4.93;;;4.27;;
10461;SDS011;5278;42.656;23.374;2022-10-17T00:47:49;5.73;;;4.37;;
10461;SDS011;5278;42.656;23.374;2022-10-17T00:50:22;5.00;;;4.50;;
10461;SDS011;5278;42.656;23.374;2022-10-17T00:52:50;6.27;;;4.43;;
10461;SDS011;5278;42.656;23.374;2022-10-17T00:55:19;6.13;;;4.93;;
10461;SDS011;5278;42.656;23.374;2022-10-17T00:57:49;4.33;;;3.93;;
10461;SDS011;5278;42.656;23.374;2022-10-17T01:00:17;5.70;;;4.23;;
10461;SDS011;5278;42.656;23.374;2022-10-17T01:02:44;4.43;;;3.77;;
10461;SDS011;5278;42.656;23.374;2022-10-17T01:05:11;6.70;;;4.17;;
10461;SDS011;5278;42.656;23.374;2022-10-17T01:07:40;5.13;;;4.63;;
10461;SDS011;5278;42.656;23.374;2022-10-17T01:10:09;6.40;;;5.10;;
10461;SDS011;5278;42.656;23.374;2022-10-17T01:12:40;8.67;;;5.73;;
10461;SDS011;5278;42.656;23.374;2022-10-17T01:15:29;9.03;;;6.63;;
10461;SDS011;5278;42.656;23.374;2022-10-17T01:18:07;8.27;;;6.13;;
10461;SDS011;5278;42.656;23.374;2022-10-17T01:20:52;7.57;;;6.20;;
10461;SDS011;5278;42.656;23.374;2022-10-17T01:26:52;7.60;;;6.13;;
10461;SDS011;5278;42.656;23.374;2022-10-17T01:29:32;10.53;;;6.20;;
10461;SDS011;5278;42.656;23.374;2022-10-17T01:32:12;8.60;;;5.83;;
10461;SDS011;5278;42.656;23.374;2022-10-17T01:34:43;6.87;;;6.17;;
10461;SDS011;5278;42.656;23.374;2022-10-17T01:37:18;9.03;;;6.50;;
10461;SDS011;5278;42.656;23.374;2022-10-17T01:39:50;6.83;;;5.63;;
10461;SDS011;5278;42.656;23.374;2022-10-17T01:42:23;8.33;;;6.03;;
10461;SDS011;5278;42.656;23.374;2022-10-17T01:44:57;9.83;;;5.43;;
10461;SDS011;5278;42.656;23.374;2022-10-17T01:47:30;6.10;;;4.87;;
10461;SDS011;5278;42.656;23.374;2022-10-17T01:49:59;5.50;;;4.87;;
10461;SDS011;5278;42.656;23.374;2022-10-17T01:52:33;7.03;;;5.27;;
10461;SDS011;5278;42.656;23.374;2022-10-17T01:55:05;6.63;;;5.20;;
10461;SDS011;5278;42.656;23.374;2022-10-17T01:57:38;6.87;;;4.83;;
10461;SDS011;5278;42.656;23.374;2022-10-17T02:00:08;6.70;;;5.27;;
10461;SDS011;5278;42.656;23.374;2022-10-17T02:02:41;8.00;;;5.33;;
10461;SDS011;5278;42.656;23.374;2022-10-17T02:05:11;7.00;;;5.20;;
10461;SDS011;5278;42.656;23.374;2022-10-17T02:07:39;7.57;;;5.67;;
10461;SDS011;5278;42.656;23.374;2022-10-17T02:10:08;7.00;;;5.63;;
10461;SDS011;5278;42.656;23.374;2022-10-17T02:12:42;5.27;;;4.47;;
10461;SDS011;5278;42.656;23.374;2022-10-17T02:15:20;8.77;;;5.80;;
10461;SDS011;5278;42.656;23.374;2022-10-17T02:18:02;7.63;;;5.40;;
10461;SDS011;5278;42.656;23.374;2022-10-17T02:20:43;7.37;;;5.30;;
10461;SDS011;5278;42.656;23.374;2022-10-17T02:23:18;5.57;;;4.37;;
10461;SDS011;5278;42.656;23.374;2022-10-17T02:25:53;6.10;;;5.50;;
10461;SDS011;5278;42.656;23.374;2022-10-17T02:28:29;6.10;;;4.83;;
10461;SDS011;5278;42.656;23.374;2022-10-17T02:31:05;6.17;;;5.33;;
10461;SDS011;5278;42.656;23.374;2022-10-17T02:33:38;5.47;;;4.90;;
10461;SDS011;5278;42.656;23.374;2022-10-17T02:36:10;6.73;;;5.07;;
10461;SDS011;5278;42.656;23.374;2022-10-17T02:38:40;7.33;;;4.97;;
10461;SDS011;5278;42.656;23.374;2022-10-17T02:41:09;6.03;;;5.20;;
10461;SDS011;5278;42.656;23.374;2022-10-17T02:43:38;7.70;;;6.13;;
10461;SDS011;5278;42.656;23.374;2022-10-17T02:46:09;5.93;;;5.30;;
10461;SDS011;5278;42.656;23.374;2022-10-17T02:48:39;6.47;;;5.23;;
10461;SDS011;5278;42.656;23.374;2022-10-17T02:51:11;6.77;;;5.00;;
10461;SDS011;5278;42.656;23.374;2022-10-17T02:53:54;7.57;;;5.17;;
10461;SDS011;5278;42.656;23.374;2022-10-17T02:56:26;6.57;;;5.17;;
10461;SDS011;5278;42.656;23.374;2022-10-17T02:58:56;6.67;;;5.30;;
10461;SDS011;5278;42.656;23.374;2022-10-17T03:01:25;8.33;;;5.73;;
10461;SDS011;5278;42.656;23.374;2022-10-17T03:04:04;6.50;;;5.30;;
10461;SDS011;5278;42.656;23.374;2022-10-17T03:06:35;7.07;;;5.33;;
10461;SDS011;5278;42.656;23.374;2022-10-17T03:09:02;6.77;;;4.93;;
10461;SDS011;5278;42.656;23.374;2022-10-17T03:11:29;7.77;;;5.63;;
10461;SDS011;5278;42.656;23.374;2022-10-17T03:13:56;5.80;;;5.20;;
10461;SDS011;5278;42.656;23.374;2022-10-17T03:16:23;8.57;;;5.47;;
10461;SDS011;5278;42.656;23.374;2022-10-17T03:18:50;8.17;;;6.03;;
10461;SDS011;5278;42.656;23.374;2022-10-17T03:21:18;7.43;;;5.83;;
10461;SDS011;5278;42.656;23.374;2022-10-17T03:23:45;7.43;;;5.50;;
10461;SDS011;5278;42.656;23.374;2022-10-17T03:26:12;8.27;;;6.20;;
10461;SDS011;5278;42.656;23.374;2022-10-17T03:28:38;11.83;;;6.70;;
10461;SDS011;5278;42.656;23.374;2022-10-17T03:31:05;6.97;;;5.90;;
10461;SDS011;5278;42.656;23.374;2022-10-17T03:33:34;8.30;;;6.40;;
10461;SDS011;5278;42.656;23.374;2022-10-17T03:36:03;8.93;;;7.20;;
10461;SDS011;5278;42.656;23.374;2022-10-17T03:38:33;8.77;;;7.13;;
10461;SDS011;5278;42.656;23.374;2022-10-17T03:41:00;13.43;;;7.70;;
10461;SDS011;5278;42.656;23.374;2022-10-17T03:43:27;6.70;;;5.73;;
10461;SDS011;5278;42.656;23.374;2022-10-17T03:45:55;7.77;;;5.70;;
10461;SDS011;5278;42.656;23.374;2022-10-17T03:48:22;9.20;;;6.13;;
10461;SDS011;5278;42.656;23.374;2022-10-17T03:50:49;7.47;;;5.93;;
10461;SDS011;5278;42.656;23.374;2022-10-17T03:53:16;8.60;;;6.07;;
10461;SDS011;5278;42.656;23.374;2022-10-17T03:55:45;7.90;;;5.40;;
10461;SDS011;5278;42.656;23.374;2022-10-17T03:58:12;9.20;;;5.53;;
10461;SDS011;5278;42.656;23.374;2022-10-17T04:00:39;7.00;;;5.70;;
10461;SDS011;5278;42.656;23.374;2022-10-17T04:03:06;9.27;;;6.47;;
10461;SDS011;5278;42.656;23.374;2022-10-17T04:05:32;8.37;;;5.70;;
10461;SDS011;5278;42.656;23.374;2022-10-17T04:07:59;9.57;;;6.33;;
10461;SDS011;5278;42.656;23.374;2022-10-17T04:10:26;8.20;;;5.70;;
10461;SDS011;5278;42.656;23.374;2022-10-17T04:12:55;7.33;;;6.30;;
10461;SDS011;5278;42.656;23.374;2022-10-17T04:15:21;6.50;;;5.30;;
10461;SDS011;5278;42.656;23.374;2022-10-17T04:17:48;8.00;;;5.67;;
10461;SDS011;5278;42.656;23.374;2022-10-17T04:20:15;8.70;;;5.83;;
10461;SDS011;5278;42.656;23.374;2022-10-17T04:22:42;7.43;;;5.90;;
10461;SDS011;5278;42.656;23.374;2022-10-17T04:25:09;8.43;;;6.37;;
10461;SDS011;5278;42.656;23.374;2022-10-17T04:27:35;7.77;;;5.50;;
10461;SDS011;5278;42.656;23.374;2022-10-17T04:30:04;9.40;;;6.57;;
10461;SDS011;5278;42.656;23.374;2022-10-17T04:32:34;8.43;;;5.67;;
10461;SDS011;5278;42.656;23.374;2022-10-17T04:35:02;7.20;;;5.97;;
10461;SDS011;5278;42.656;23.374;2022-10-17T04:37:29;9.57;;;6.20;;
10461;SDS011;5278;42.656;23.374;2022-10-17T04:39:55;6.33;;;5.73;;
10461;SDS011;5278;42.656;23.374;2022-10-17T04:42:22;8.33;;;6.70;;
10461;SDS011;5278;42.656;23.374;2022-10-17T04:44:49;10.67;;;6.93;;
10461;SDS011;5278;42.656;23.374;2022-10-17T04:47:17;12.53;;;7.33;;
10461;SDS011;5278;42.656;23.374;2022-10-17T04:49:44;11.37;;;7.60;;
10461;SDS011;5278;42.656;23.374;2022-10-17T04:52:10;8.53;;;6.13;;
10461;SDS011;5278;42.656;23.374;2022-10-17T04:54:37;12.37;;;5.90;;
10461;SDS011;5278;42.656;23.374;2022-10-17T04:57:04;6.53;;;5.57;;
10461;SDS011;5278;42.656;23.374;2022-10-17T04:59:31;9.63;;;5.93;;
10461;SDS011;5278;42.656;23.374;2022-10-17T05:01:58;10.17;;;5.63;;
10461;SDS011;5278;42.656;23.374;2022-10-17T05:04:26;5.70;;;5.00;;
10461;SDS011;5278;42.656;23.374;2022-10-17T05:06:53;9.70;;;5.73;;
10461;SDS011;5278;42.656;23.374;2022-10-17T05:09:19;12.60;;;6.30;;
10461;SDS011;5278;42.656;23.374;2022-10-17T05:11:46;8.67;;;5.83;;
10461;SDS011;5278;42.656;23.374;2022-10-17T05:14:13;6.27;;;5.27;;
10461;SDS011;5278;42.656;23.374;2022-10-17T05:16:41;14.23;;;6.63;;
10461;SDS011;5278;42.656;23.374;2022-10-17T05:19:07;6.90;;;6.07;;
10461;SDS011;5278;42.656;23.374;2022-10-17T05:21:36;6.27;;;5.53;;
10461;SDS011;5278;42.656;23.374;2022-10-17T05:24:04;8.03;;;5.93;;
10461;SDS011;5278;42.656;23.374;2022-10-17T05:26:31;7.57;;;5.77;;
10461;SDS011;5278;42.656;23.374;2022-10-17T05:28:58;8.90;;;6.63;;
10461;SDS011;5278;42.656;23.374;2022-10-17T05:31:27;10.50;;;6.73;;
10461;SDS011;5278;42.656;23.374;2022-10-17T05:33:54;7.97;;;5.87;;
10461;SDS011;5278;42.656;23.374;2022-10-17T05:36:21;8.17;;;6.23;;
10461;SDS011;5278;42.656;23.374;2022-10-17T05:38:50;6.93;;;5.73;;
10461;SDS011;5278;42.656;23.374;2022-10-17T05:41:17;9.30;;;6.73;;
10461;SDS011;5278;42.656;23.374;2022-10-17T05:43:45;7.60;;;6.37;;
10461;SDS011;5278;42.656;23.374;2022-10-17T05:46:13;8.27;;;6.53;;
10461;SDS011;5278;42.656;23.374;2022-10-17T05:48:40;12.87;;;7.40;;
10461;SDS011;5278;42.656;23.374;2022-10-17T05:51:07;9.67;;;7.53;;
10461;SDS011;5278;42.656;23.374;2022-10-17T05:53:36;13.10;;;7.57;;
10461;SDS011;5278;42.656;23.374;2022-10-17T05:56:06;10.30;;;7.27;;
10461;SDS011;5278;42.656;23.374;2022-10-17T05:58:34;8.23;;;7.20;;
10461;SDS011;5278;42.656;23.374;2022-10-17T06:01:02;15.87;;;8.57;;
10461;SDS011;5278;42.656;23.374;2022-10-17T06:03:30;19.17;;;13.43;;
10461;SDS011;5278;42.656;23.374;2022-10-17T06:06:01;22.70;;;14.67;;
10461;SDS011;5278;42.656;23.374;2022-10-17T06:08:29;15.00;;;10.17;;
10461;SDS011;5278;42.656;23.374;2022-10-17T06:10:56;11.43;;;8.47;;
10461;SDS011;5278;42.656;23.374;2022-10-17T06:13:25;11.77;;;9.10;;
10461;SDS011;5278;42.656;23.374;2022-10-17T06:15:51;11.87;;;9.20;;
10461;SDS011;5278;42.656;23.374;2022-10-17T06:18:18;11.40;;;8.70;;
10461;SDS011;5278;42.656;23.374;2022-10-17T06:20:45;16.93;;;11.23;;
10461;SDS011;5278;42.656;23.374;2022-10-17T06:23:12;18.53;;;11.83;;
10461;SDS011;5278;42.656;23.374;2022-10-17T06:25:39;9.93;;;8.20;;
10461;SDS011;5278;42.656;23.374;2022-10-17T06:28:06;10.67;;;8.83;;
10461;SDS011;5278;42.656;23.374;2022-10-17T06:30:38;8.90;;;8.00;;
10461;SDS011;5278;42.656;23.374;2022-10-17T06:33:05;13.37;;;10.00;;
10461;SDS011;5278;42.656;23.374;2022-10-17T06:35:33;15.33;;;11.10;;
10461;SDS011;5278;42.656;23.374;2022-10-17T06:38:00;18.27;;;10.67;;
10461;SDS011;5278;42.656;23.374;2022-10-17T06:40:26;14.90;;;11.53;;
10461;SDS011;5278;42.656;23.374;2022-10-17T06:42:55;15.00;;;11.43;;
10461;SDS011;5278;42.656;23.374;2022-10-17T06:45:21;14.87;;;11.23;;
10461;SDS011;5278;42.656;23.374;2022-10-17T06:47:50;13.87;;;10.57;;
10461;SDS011;5278;42.656;23.374;2022-10-17T06:50:17;14.00;;;11.13;;
10461;SDS011;5278;42.656;23.374;2022-10-17T06:52:43;16.63;;;11.53;;
10461;SDS011;5278;42.656;23.374;2022-10-17T06:55:10;14.17;;;10.93;;
10461;SDS011;5278;42.656;23.374;2022-10-17T06:57:37;20.40;;;12.50;;
10461;SDS011;5278;42.656;23.374;2022-10-17T07:00:04;17.33;;;13.10;;
10461;SDS011;5278;42.656;23.374;2022-10-17T07:02:32;16.30;;;11.07;;
10461;SDS011;5278;42.656;23.374;2022-10-17T07:05:00;15.40;;;10.57;;
10461;SDS011;5278;42.656;23.374;2022-10-17T07:07:29;15.27;;;10.80;;
10461;SDS011;5278;42.656;23.374;2022-10-17T07:09:56;13.03;;;11.63;;
10461;SDS011;5278;42.656;23.374;2022-10-17T07:12:24;18.83;;;12.47;;
10461;SDS011;5278;42.656;23.374;2022-10-17T07:14:51;22.80;;;16.77;;
10461;SDS011;5278;42.656;23.374;2022-10-17T07:17:17;23.00;;;12.63;;
10461;SDS011;5278;42.656;23.374;2022-10-17T07:19:44;16.07;;;11.87;;
10461;SDS011;5278;42.656;23.374;2022-10-17T07:22:20;16.63;;;12.60;;
10461;SDS011;5278;42.656;23.374;2022-10-17T07:24:47;18.27;;;12.10;;
10461;SDS011;5278;42.656;23.374;2022-10-17T07:27:14;14.70;;;11.87;;
10461;SDS011;5278;42.656;23.374;2022-10-17T07:29:41;17.00;;;11.50;;
10461;SDS011;5278;42.656;23.374;2022-10-17T07:32:08;15.70;;;11.17;;
10461;SDS011;5278;42.656;23.374;2022-10-17T07:34:35;17.80;;;12.53;;
10461;SDS011;5278;42.656;23.374;2022-10-17T07:37:01;16.93;;;11.50;;
10461;SDS011;5278;42.656;23.374;2022-10-17T07:39:32;14.23;;;11.60;;
10461;SDS011;5278;42.656;23.374;2022-10-17T07:42:00;18.77;;;12.17;;
10461;SDS011;5278;42.656;23.374;2022-10-17T07:44:27;17.20;;;11.70;;
10461;SDS011;5278;42.656;23.374;2022-10-17T07:46:54;19.00;;;13.47;;
10461;SDS011;5278;42.656;23.374;2022-10-17T07:49:20;17.40;;;13.23;;
10461;SDS011;5278;42.656;23.374;2022-10-17T07:51:47;16.57;;;13.53;;
10461;SDS011;5278;42.656;23.374;2022-10-17T07:54:14;23.27;;;13.63;;
10461;SDS011;5278;42.656;23.374;2022-10-17T07:56:42;20.00;;;13.50;;
10461;SDS011;5278;42.656;23.374;2022-10-17T07:59:14;28.83;;;19.07;;
10461;SDS011;5278;42.656;23.374;2022-10-17T08:01:41;22.33;;;15.60;;
10461;SDS011;5278;42.656;23.374;2022-10-17T08:04:08;23.75;;;16.20;;
10461;SDS011;5278;42.656;23.374;2022-10-17T08:06:35;22.15;;;14.27;;
10461;SDS011;5278;42.656;23.374;2022-10-17T08:09:02;17.50;;;14.32;;
10461;SDS011;5278;42.656;23.374;2022-10-17T08:11:29;20.67;;;14.60;;
10461;SDS011;5278;42.656;23.374;2022-10-17T08:13:57;17.25;;;11.63;;
10461;SDS011;5278;42.656;23.374;2022-10-17T08:16:24;19.60;;;12.43;;
10461;SDS011;5278;42.656;23.374;2022-10-17T08:18:51;21.35;;;17.58;;
10461;SDS011;5278;42.656;23.374;2022-10-17T08:21:18;20.52;;;13.70;;
10461;SDS011;5278;42.656;23.374;2022-10-17T08:23:45;15.52;;;13.93;;
10461;SDS011;5278;42.656;23.374;2022-10-17T08:26:11;17.92;;;13.23;;
10461;SDS011;5278;42.656;23.374;2022-10-17T08:28:41;22.85;;;17.95;;
10461;SDS011;5278;42.656;23.374;2022-10-17T08:31:11;21.10;;;16.63;;
10461;SDS011;5278;42.656;23.374;2022-10-17T08:33:39;18.95;;;14.45;;
10461;SDS011;5278;42.656;23.374;2022-10-17T08:36:07;17.42;;;13.38;;
10461;SDS011;5278;42.656;23.374;2022-10-17T08:38:35;19.98;;;13.32;;
10461;SDS011;5278;42.656;23.374;2022-10-17T08:41:04;18.05;;;13.70;;
10461;SDS011;5278;42.656;23.374;2022-10-17T08:43:42;20.13;;;15.48;;
10461;SDS011;5278;42.656;23.374;2022-10-17T08:46:22;17.52;;;12.85;;
10461;SDS011;5278;42.656;23.374;2022-10-17T08:48:55;19.00;;;13.45;;
10461;SDS011;5278;42.656;23.374;2022-10-17T08:51:27;13.73;;;11.57;;
10461;SDS011;5278;42.656;23.374;2022-10-17T08:53:59;14.48;;;11.40;;
10461;SDS011;5278;42.656;23.374;2022-10-17T08:56:32;15.95;;;11.27;;
10461;SDS011;5278;42.656;23.374;2022-10-17T08:59:05;20.75;;;12.68;;
10461;SDS011;5278;42.656;23.374;2022-10-17T09:01:40;14.23;;;10.85;;
10461;SDS011;5278;42.656;23.374;2022-10-17T09:04:22;12.88;;;10.90;;
10461;SDS011;5278;42.656;23.374;2022-10-17T09:07:19;17.95;;;9.43;;
10461;SDS011;5278;42.656;23.374;2022-10-17T09:09:53;16.33;;;13.35;;
10461;SDS011;5278;42.656;23.374;2022-10-17T09:12:28;14.73;;;10.70;;
10461;SDS011;5278;42.656;23.374;2022-10-17T09:15:07;16.42;;;10.65;;
10461;SDS011;5278;42.656;23.374;2022-10-17T09:17:51;16.42;;;11.98;;
10461;SDS011;5278;42.656;23.374;2022-10-17T09:20:21;13.82;;;10.27;;
10461;SDS011;5278;42.656;23.374;2022-10-17T09:22:53;15.95;;;11.50;;
10461;SDS011;5278;42.656;23.374;2022-10-17T09:25:23;12.70;;;8.18;;
10461;SDS011;5278;42.656;23.374;2022-10-17T09:27:53;14.35;;;8.93;;
10461;SDS011;5278;42.656;23.374;2022-10-17T09:30:27;16.02;;;9.50;;
10461;SDS011;5278;42.656;23.374;2022-10-17T09:33:01;12.80;;;8.55;;
10461;SDS011;5278;42.656;23.374;2022-10-17T09:35:36;12.45;;;7.43;;
10461;SDS011;5278;42.656;23.374;2022-10-17T09:38:06;13.60;;;7.72;;
10461;SDS011;5278;42.656;23.374;2022-10-17T09:40:40;8.60;;;7.40;;
10461;SDS011;5278;42.656;23.374;2022-10-17T09:43:07;9.52;;;7.00;;
10461;SDS011;5278;42.656;23.374;2022-10-17T09:45:39;9.32;;;6.82;;
10461;SDS011;5278;42.656;23.374;2022-10-17T09:48:16;8.18;;;6.55;;
10461;SDS011;5278;42.656;23.374;2022-10-17T09:50:51;7.70;;;5.47;;
10461;SDS011;5278;42.656;23.374;2022-10-17T09:53:19;6.78;;;5.72;;
10461;SDS011;5278;42.656;23.374;2022-10-17T09:55:50;11.07;;;7.40;;
10461;SDS011;5278;42.656;23.374;2022-10-17T09:58:22;6.45;;;5.25;;
10461;SDS011;5278;42.656;23.374;2022-10-17T10:00:49;11.73;;;6.57;;
10461;SDS011;5278;42.656;23.374;2022-10-17T10:03:18;6.25;;;4.85;;
10461;SDS011;5278;42.656;23.374;2022-10-17T10:06:00;5.65;;;4.70;;
10461;SDS011;5278;42.656;23.374;2022-10-17T10:08:30;11.38;;;8.85;;
10461;SDS011;5278;42.656;23.374;2022-10-17T10:10:59;4.88;;;3.95;;
10461;SDS011;5278;42.656;23.374;2022-10-17T10:13:29;5.07;;;4.30;;
10461;SDS011;5278;42.656;23.374;2022-10-17T10:16:11;5.25;;;3.97;;
10461;SDS011;5278;42.656;23.374;2022-10-17T10:18:43;6.65;;;3.90;;
10461;SDS011;5278;42.656;23.374;2022-10-17T10:21:11;4.05;;;3.22;;
10461;SDS011;5278;42.656;23.374;2022-10-17T10:23:39;6.13;;;3.97;;
10461;SDS011;5278;42.656;23.374;2022-10-17T10:26:18;4.65;;;3.80;;
10461;SDS011;5278;42.656;23.374;2022-10-17T10:28:53;5.63;;;3.85;;
10461;SDS011;5278;42.656;23.374;2022-10-17T10:31:26;4.07;;;3.75;;
10461;SDS011;5278;42.656;23.374;2022-10-17T10:33:59;4.65;;;3.63;;
10461;SDS011;5278;42.656;23.374;2022-10-17T10:36:41;3.75;;;3.42;;
10461;SDS011;5278;42.656;23.374;2022-10-17T10:42:08;6.47;;;3.22;;
10461;SDS011;5278;42.656;23.374;2022-10-17T10:44:45;3.65;;;3.35;;
10461;SDS011;5278;42.656;23.374;2022-10-17T10:47:15;4.80;;;3.75;;
10461;SDS011;5278;42.656;23.374;2022-10-17T10:49:47;3.83;;;3.53;;
10461;SDS011;5278;42.656;23.374;2022-10-17T10:52:24;3.47;;;2.78;;
10461;SDS011;5278;42.656;23.374;2022-10-17T10:54:59;4.03;;;3.63;;
10461;SDS011;5278;42.656;23.374;2022-10-17T10:57:36;6.00;;;3.50;;
10461;SDS011;5278;42.656;23.374;2022-10-17T11:00:07;6.40;;;5.43;;
10461;SDS011;5278;42.656;23.374;2022-10-17T11:02:41;4.03;;;3.63;;
10461;SDS011;5278;42.656;23.374;2022-10-17T11:05:19;3.47;;;3.17;;
10461;SDS011;5278;42.656;23.374;2022-10-17T11:07:51;3.25;;;3.00;;
10461;SDS011;5278;42.656;23.374;2022-10-17T11:10:25;4.95;;;3.40;;
10461;SDS011;5278;42.656;23.374;2022-10-17T11:13:00;5.30;;;4.63;;
10461;SDS011;5278;42.656;23.374;2022-10-17T11:15:33;7.05;;;3.22;;
10461;SDS011;5278;42.656;23.374;2022-10-17T11:18:05;3.95;;;2.97;;
10461;SDS011;5278;42.656;23.374;2022-10-17T11:20:40;3.05;;;2.75;;
10461;SDS011;5278;42.656;23.374;2022-10-17T11:23:16;4.82;;;3.50;;
10461;SDS011;5278;42.656;23.374;2022-10-17T11:25:58;7.00;;;4.20;;
10461;SDS011;5278;42.656;23.374;2022-10-17T11:28:30;3.17;;;2.88;;
10461;SDS011;5278;42.656;23.374;2022-10-17T11:30:58;3.55;;;3.20;;
10461;SDS011;5278;42.656;23.374;2022-10-17T11:33:29;6.22;;;3.17;;
10461;SDS011;5278;42.656;23.374;2022-10-17T11:36:03;3.45;;;3.15;;
10461;SDS011;5278;42.656;23.374;2022-10-17T11:38:35;3.97;;;3.10;;
10461;SDS011;5278;42.656;23.374;2022-10-17T11:41:08;3.30;;;3.00;;
10461;SDS011;5278;42.656;23.374;2022-10-17T11:43:39;4.70;;;3.53;;
10461;SDS011;5278;42.656;23.374;2022-10-17T11:46:12;4.68;;;3.30;;
10461;SDS011;5278;42.656;23.374;2022-10-17T11:48:44;4.63;;;3.33;;
10461;SDS011;5278;42.656;23.374;2022-10-17T11:51:24;5.95;;;3.42;;
10461;SDS011;5278;42.656;23.374;2022-10-17T11:53:53;3.60;;;3.30;;
10461;SDS011;5278;42.656;23.374;2022-10-17T11:56:25;3.80;;;3.23;;
10461;SDS011;5278;42.656;23.374;2022-10-17T11:59:01;3.87;;;3.00;;
10461;SDS011;5278;42.656;23.374;2022-10-17T12:01:47;3.83;;;3.03;;
10461;SDS011;5278;42.656;23.374;2022-10-17T12:04:22;4.17;;;3.40;;
10461;SDS011;5278;42.656;23.374;2022-10-17T12:07:04;8.93;;;6.43;;
10461;SDS011;5278;42.656;23.374;2022-10-17T12:09:40;3.47;;;3.17;;
10461;SDS011;5278;42.656;23.374;2022-10-17T12:12:22;4.67;;;3.83;;
10461;SDS011;5278;42.656;23.374;2022-10-17T12:14:50;6.67;;;3.37;;
10461;SDS011;5278;42.656;23.374;2022-10-17T12:17:28;4.77;;;3.33;;
10461;SDS011;5278;42.656;23.374;2022-10-17T12:22:53;6.60;;;5.00;;
10461;SDS011;5278;42.656;23.374;2022-10-17T12:25:21;4.23;;;3.83;;
10461;SDS011;5278;42.656;23.374;2022-10-17T12:27:50;5.83;;;4.00;;
10461;SDS011;5278;42.656;23.374;2022-10-17T12:30:34;4.50;;;4.10;;
10461;SDS011;5278;42.656;23.374;2022-10-17T12:33:02;4.37;;;2.90;;
10461;SDS011;5278;42.656;23.374;2022-10-17T12:35:34;3.73;;;3.30;;
10461;SDS011;5278;42.656;23.374;2022-10-17T12:40:50;4.23;;;2.97;;
10461;SDS011;5278;42.656;23.374;2022-10-17T12:52:15;4.50;;;3.60;;
10461;SDS011;5278;42.656;23.374;2022-10-17T12:54:46;3.93;;;2.93;;
10461;SDS011;5278;42.656;23.374;2022-10-17T12:57:18;3.50;;;3.20;;
10461;SDS011;5278;42.656;23.374;2022-10-17T12:59:51;4.80;;;3.13;;
10461;SDS011;5278;42.656;23.374;2022-10-17T13:02:19;2.77;;;2.53;;
10461;SDS011;5278;42.656;23.374;2022-10-17T13:04:50;4.57;;;2.97;;
10461;SDS011;5278;42.656;23.374;2022-10-17T13:07:22;7.83;;;3.63;;
10461;SDS011;5278;42.656;23.374;2022-10-17T13:09:51;3.70;;;2.97;;
10461;SDS011;5278;42.656;23.374;2022-10-17T13:12:20;5.57;;;3.30;;
10461;SDS011;5278;42.656;23.374;2022-10-17T13:14:51;3.40;;;3.10;;
10461;SDS011;5278;42.656;23.374;2022-10-17T13:17:21;6.07;;;3.97;;
10461;SDS011;5278;42.656;23.374;2022-10-17T13:19:50;4.00;;;2.97;;
10461;SDS011;5278;42.656;23.374;2022-10-17T13:22:18;3.20;;;2.90;;
10461;SDS011;5278;42.656;23.374;2022-10-17T13:24:46;3.50;;;2.73;;
10461;SDS011;5278;42.656;23.374;2022-10-17T13:27:22;2.20;;;2.00;;
10461;SDS011;5278;42.656;23.374;2022-10-17T13:29:51;2.50;;;2.30;;
10461;SDS011;5278;42.656;23.374;2022-10-17T13:32:20;3.73;;;2.30;;
10461;SDS011;5278;42.656;23.374;2022-10-17T13:37:34;3.57;;;2.40;;
10461;SDS011;5278;42.656;23.374;2022-10-17T13:40:01;2.40;;;2.07;;
10461;SDS011;5278;42.656;23.374;2022-10-17T13:42:38;6.47;;;2.30;;
10461;SDS011;5278;42.656;23.374;2022-10-17T13:45:09;2.23;;;1.93;;
10461;SDS011;5278;42.656;23.374;2022-10-17T13:47:43;2.40;;;2.20;;
10461;SDS011;5278;42.656;23.374;2022-10-17T13:50:15;2.90;;;2.53;;
10461;SDS011;5278;42.656;23.374;2022-10-17T13:52:47;2.87;;;2.33;;
10461;SDS011;5278;42.656;23.374;2022-10-17T13:55:15;4.97;;;2.67;;
10461;SDS011;5278;42.656;23.374;2022-10-17T13:57:45;3.10;;;2.10;;
10461;SDS011;5278;42.656;23.374;2022-10-17T14:00:15;3.77;;;2.27;;
10461;SDS011;5278;42.656;23.374;2022-10-17T14:02:45;4.83;;;3.10;;
10461;SDS011;5278;42.656;23.374;2022-10-17T14:05:13;4.13;;;3.13;;
10461;SDS011;5278;42.656;23.374;2022-10-17T14:07:42;4.57;;;3.23;;
10461;SDS011;5278;42.656;23.374;2022-10-17T14:10:16;2.93;;;2.60;;
10461;SDS011;5278;42.656;23.374;2022-10-17T14:12:47;3.43;;;2.80;;
10461;SDS011;5278;42.656;23.374;2022-10-17T14:15:15;4.03;;;3.27;;
10461;SDS011;5278;42.656;23.374;2022-10-17T14:17:43;2.90;;;2.60;;
10461;SDS011;5278;42.656;23.374;2022-10-17T14:20:20;3.73;;;2.93;;
10461;SDS011;5278;42.656;23.374;2022-10-17T14:22:48;3.87;;;3.33;;
10461;SDS011;5278;42.656;23.374;2022-10-17T14:25:26;3.63;;;3.30;;
10461;SDS011;5278;42.656;23.374;2022-10-17T14:27:55;4.33;;;3.00;;
10461;SDS011;5278;42.656;23.374;2022-10-17T14:30:33;5.47;;;3.93;;
10461;SDS011;5278;42.656;23.374;2022-10-17T14:33:02;4.87;;;3.90;;
10461;SDS011;5278;42.656;23.374;2022-10-17T14:35:32;5.20;;;3.50;;
10461;SDS011;5278;42.656;23.374;2022-10-17T14:38:00;5.03;;;3.57;;
10461;SDS011;5278;42.656;23.374;2022-10-17T14:40:28;4.63;;;3.27;;
10461;SDS011;5278;42.656;23.374;2022-10-17T14:42:59;6.17;;;3.70;;
10461;SDS011;5278;42.656;23.374;2022-10-17T14:45:30;7.83;;;3.60;;
10461;SDS011;5278;42.656;23.374;2022-10-17T14:47:59;4.93;;;3.70;;
10461;SDS011;5278;42.656;23.374;2022-10-17T14:50:29;5.27;;;4.03;;
10461;SDS011;5278;42.656;23.374;2022-10-17T14:53:01;4.53;;;3.30;;
10461;SDS011;5278;42.656;23.374;2022-10-17T14:55:31;5.07;;;3.87;;
10461;SDS011;5278;42.656;23.374;2022-10-17T14:58:01;6.23;;;3.50;;
10461;SDS011;5278;42.656;23.374;2022-10-17T15:00:40;6.77;;;4.60;;
10461;SDS011;5278;42.656;23.374;2022-10-17T15:03:07;4.33;;;3.50;;
10461;SDS011;5278;42.656;23.374;2022-10-17T15:05:34;4.40;;;3.80;;
10461;SDS011;5278;42.656;23.374;2022-10-17T15:08:00;18.23;;;11.83;;
10461;SDS011;5278;42.656;23.374;2022-10-17T15:10:30;12.10;;;5.70;;
10461;SDS011;5278;42.656;23.374;2022-10-17T15:12:59;8.73;;;4.80;;
10461;SDS011;5278;42.656;23.374;2022-10-17T15:15:28;6.83;;;3.93;;
10461;SDS011;5278;42.656;23.374;2022-10-17T15:17:56;7.00;;;4.30;;
10461;SDS011;5278;42.656;23.374;2022-10-17T15:20:24;6.60;;;3.50;;
10461;SDS011;5278;42.656;23.374;2022-10-17T15:22:53;6.03;;;3.67;;